sensor_id;sensor_type;location;lat;lon;timestamp;P1;durP1;ratioP1;P2;durP2;ratioP2
9438;SDS011;5176;42.622;25.386;2024-03-23T00:54:11;8.87;;;6.07;;
9438;SDS011;5176;42.622;25.386;2024-03-23T00:56:37;12.93;;;7.20;;
9438;SDS011;5176;42.622;25.386;2024-03-23T00:59:04;11.83;;;7.37;;
9438;SDS011;5176;42.622;25.386;2024-03-23T01:01:31;12.53;;;6.87;;
9438;SDS011;5176;42.622;25.386;2024-03-23T01:03:58;14.50;;;8.10;;
9438;SDS011;5176;42.622;25.386;2024-03-23T01:06:24;10.23;;;7.33;;
9438;SDS011;5176;42.622;25.386;2024-03-23T01:08:52;9.30;;;6.27;;
9438;SDS011;5176;42.622;25.386;2024-03-23T01:11:19;9.77;;;7.23;;
9438;SDS011;5176;42.622;25.386;2024-03-23T01:13:47;10.73;;;7.37;;
9438;SDS011;5176;42.622;25.386;2024-03-23T01:16:13;13.40;;;7.87;;
9438;SDS011;5176;42.622;25.386;2024-03-23T01:18:41;10.83;;;7.23;;
9438;SDS011;5176;42.622;25.386;2024-03-23T01:21:07;8.13;;;5.77;;
9438;SDS011;5176;42.622;25.386;2024-03-23T01:23:34;13.50;;;6.60;;
9438;SDS011;5176;42.622;25.386;2024-03-23T01:26:01;9.80;;;5.90;;
9438;SDS011;5176;42.622;25.386;2024-03-23T01:28:29;10.27;;;7.67;;
9438;SDS011;5176;42.622;25.386;2024-03-23T01:30:55;8.40;;;6.33;;
9438;SDS011;5176;42.622;25.386;2024-03-23T01:33:23;13.00;;;6.97;;
9438;SDS011;5176;42.622;25.386;2024-03-23T01:35:49;10.03;;;6.63;;
9438;SDS011;5176;42.622;25.386;2024-03-23T01:38:17;9.83;;;6.53;;
9438;SDS011;5176;42.622;25.386;2024-03-23T01:40:43;9.73;;;6.10;;
9438;SDS011;5176;42.622;25.386;2024-03-23T01:43:10;10.33;;;7.20;;
9438;SDS011;5176;42.622;25.386;2024-03-23T01:45:38;9.33;;;6.80;;
9438;SDS011;5176;42.622;25.386;2024-03-23T01:48:06;9.33;;;6.30;;
9438;SDS011;5176;42.622;25.386;2024-03-23T01:50:33;9.80;;;6.90;;
9438;SDS011;5176;42.622;25.386;2024-03-23T01:53:00;9.53;;;6.17;;
9438;SDS011;5176;42.622;25.386;2024-03-23T01:55:28;9.13;;;6.30;;
9438;SDS011;5176;42.622;25.386;2024-03-23T01:57:56;6.13;;;4.80;;
9438;SDS011;5176;42.622;25.386;2024-03-23T02:00:23;6.07;;;4.80;;
9438;SDS011;5176;42.622;25.386;2024-03-23T02:02:54;8.50;;;4.63;;
9438;SDS011;5176;42.622;25.386;2024-03-23T02:05:20;6.07;;;4.60;;
9438;SDS011;5176;42.622;25.386;2024-03-23T02:07:47;5.30;;;4.57;;
9438;SDS011;5176;42.622;25.386;2024-03-23T02:10:14;6.83;;;4.87;;
9438;SDS011;5176;42.622;25.386;2024-03-23T02:12:41;6.00;;;4.77;;
9438;SDS011;5176;42.622;25.386;2024-03-23T02:15:07;5.50;;;4.63;;
9438;SDS011;5176;42.622;25.386;2024-03-23T02:17:35;6.73;;;4.90;;
9438;SDS011;5176;42.622;25.386;2024-03-23T02:20:03;6.27;;;4.93;;
9438;SDS011;5176;42.622;25.386;2024-03-23T02:22:35;7.90;;;5.77;;
9438;SDS011;5176;42.622;25.386;2024-03-23T02:25:04;7.60;;;5.40;;
9438;SDS011;5176;42.622;25.386;2024-03-23T02:27:32;6.00;;;5.03;;
9438;SDS011;5176;42.622;25.386;2024-03-23T02:30:00;9.20;;;6.00;;
9438;SDS011;5176;42.622;25.386;2024-03-23T02:32:27;7.50;;;6.13;;
9438;SDS011;5176;42.622;25.386;2024-03-23T02:34:54;9.07;;;6.70;;
9438;SDS011;5176;42.622;25.386;2024-03-23T02:37:21;7.33;;;5.67;;
9438;SDS011;5176;42.622;25.386;2024-03-23T02:39:47;7.50;;;5.93;;
9438;SDS011;5176;42.622;25.386;2024-03-23T02:42:16;6.67;;;5.37;;
9438;SDS011;5176;42.622;25.386;2024-03-23T02:44:43;6.20;;;5.33;;
9438;SDS011;5176;42.622;25.386;2024-03-23T02:47:11;7.57;;;5.20;;
9438;SDS011;5176;42.622;25.386;2024-03-23T02:49:38;9.67;;;4.93;;
9438;SDS011;5176;42.622;25.386;2024-03-23T02:52:04;6.73;;;5.00;;
9438;SDS011;5176;42.622;25.386;2024-03-23T02:54:32;7.53;;;5.13;;
9438;SDS011;5176;42.622;25.386;2024-03-23T02:56:58;7.50;;;5.07;;
9438;SDS011;5176;42.622;25.386;2024-03-23T02:59:27;6.80;;;4.90;;
9438;SDS011;5176;42.622;25.386;2024-03-23T03:01:53;5.63;;;4.50;;
9438;SDS011;5176;42.622;25.386;2024-03-23T03:04:21;7.47;;;4.77;;
9438;SDS011;5176;42.622;25.386;2024-03-23T03:06:47;7.33;;;5.00;;
9438;SDS011;5176;42.622;25.386;2024-03-23T03:09:18;7.47;;;4.53;;
9438;SDS011;5176;42.622;25.386;2024-03-23T03:11:44;8.43;;;5.23;;
9438;SDS011;5176;42.622;25.386;2024-03-23T03:14:11;6.90;;;4.97;;
9438;SDS011;5176;42.622;25.386;2024-03-23T03:16:39;7.53;;;4.80;;
9438;SDS011;5176;42.622;25.386;2024-03-23T03:19:06;7.27;;;5.07;;
9438;SDS011;5176;42.622;25.386;2024-03-23T03:21:32;7.47;;;5.30;;
9438;SDS011;5176;42.622;25.386;2024-03-23T03:24:00;7.47;;;5.33;;
9438;SDS011;5176;42.622;25.386;2024-03-23T03:26:26;8.03;;;5.07;;
9438;SDS011;5176;42.622;25.386;2024-03-23T03:28:53;6.17;;;4.70;;
9438;SDS011;5176;42.622;25.386;2024-03-23T03:31:20;6.17;;;4.40;;
9438;SDS011;5176;42.622;25.386;2024-03-23T03:33:49;6.83;;;4.40;;
9438;SDS011;5176;42.622;25.386;2024-03-23T03:36:15;5.73;;;4.30;;
9438;SDS011;5176;42.622;25.386;2024-03-23T03:38:43;6.60;;;4.77;;
9438;SDS011;5176;42.622;25.386;2024-03-23T03:41:09;7.13;;;4.87;;
9438;SDS011;5176;42.622;25.386;2024-03-23T03:43:37;5.97;;;4.27;;
9438;SDS011;5176;42.622;25.386;2024-03-23T03:46:03;6.97;;;4.50;;
9438;SDS011;5176;42.622;25.386;2024-03-23T03:48:33;6.13;;;5.00;;
9438;SDS011;5176;42.622;25.386;2024-03-23T03:51:01;7.13;;;5.20;;
9438;SDS011;5176;42.622;25.386;2024-03-23T03:53:28;26.20;;;18.47;;
9438;SDS011;5176;42.622;25.386;2024-03-23T03:55:55;13.50;;;9.23;;
9438;SDS011;5176;42.622;25.386;2024-03-23T03:58:23;15.53;;;10.07;;
9438;SDS011;5176;42.622;25.386;2024-03-23T04:00:49;12.67;;;8.70;;
9438;SDS011;5176;42.622;25.386;2024-03-23T04:03:16;12.57;;;9.27;;
9438;SDS011;5176;42.622;25.386;2024-03-23T04:05:42;12.63;;;7.00;;
9438;SDS011;5176;42.622;25.386;2024-03-23T04:08:11;9.20;;;6.57;;
9438;SDS011;5176;42.622;25.386;2024-03-23T04:10:38;8.73;;;6.43;;
9438;SDS011;5176;42.622;25.386;2024-03-23T04:13:05;9.27;;;8.00;;
9438;SDS011;5176;42.622;25.386;2024-03-23T04:15:32;9.63;;;7.63;;
9438;SDS011;5176;42.622;25.386;2024-03-23T04:17:59;11.17;;;8.60;;
9438;SDS011;5176;42.622;25.386;2024-03-23T04:20:25;10.73;;;7.57;;
9438;SDS011;5176;42.622;25.386;2024-03-23T04:22:52;11.20;;;8.10;;
9438;SDS011;5176;42.622;25.386;2024-03-23T04:25:20;10.87;;;7.47;;
9438;SDS011;5176;42.622;25.386;2024-03-23T04:27:48;11.70;;;8.80;;
9438;SDS011;5176;42.622;25.386;2024-03-23T04:30:15;10.77;;;8.07;;
9438;SDS011;5176;42.622;25.386;2024-03-23T04:32:43;10.17;;;7.17;;
9438;SDS011;5176;42.622;25.386;2024-03-23T04:35:09;11.13;;;8.17;;
9438;SDS011;5176;42.622;25.386;2024-03-23T04:37:36;10.23;;;8.47;;
9438;SDS011;5176;42.622;25.386;2024-03-23T04:40:06;15.03;;;11.63;;
9438;SDS011;5176;42.622;25.386;2024-03-23T04:42:36;44.67;;;22.23;;
9438;SDS011;5176;42.622;25.386;2024-03-23T04:45:04;43.87;;;21.97;;
9438;SDS011;5176;42.622;25.386;2024-03-23T04:47:32;40.23;;;21.60;;
9438;SDS011;5176;42.622;25.386;2024-03-23T04:50:01;20.83;;;12.67;;
9438;SDS011;5176;42.622;25.386;2024-03-23T04:52:28;15.57;;;10.50;;
9438;SDS011;5176;42.622;25.386;2024-03-23T04:54:55;14.63;;;10.90;;
9438;SDS011;5176;42.622;25.386;2024-03-23T04:57:23;16.17;;;11.50;;
9438;SDS011;5176;42.622;25.386;2024-03-23T04:59:52;17.23;;;12.50;;
9438;SDS011;5176;42.622;25.386;2024-03-23T05:02:18;27.80;;;17.80;;
9438;SDS011;5176;42.622;25.386;2024-03-23T05:04:45;14.47;;;9.13;;
9438;SDS011;5176;42.622;25.386;2024-03-23T05:07:12;12.70;;;7.60;;
9438;SDS011;5176;42.622;25.386;2024-03-23T05:09:39;6.93;;;5.73;;
9438;SDS011;5176;42.622;25.386;2024-03-23T05:12:06;9.23;;;5.87;;
9438;SDS011;5176;42.622;25.386;2024-03-23T05:14:33;7.90;;;5.90;;
9438;SDS011;5176;42.622;25.386;2024-03-23T05:17:01;7.07;;;5.50;;
9438;SDS011;5176;42.622;25.386;2024-03-23T05:19:30;8.00;;;6.00;;
9438;SDS011;5176;42.622;25.386;2024-03-23T05:21:56;6.80;;;5.13;;
9438;SDS011;5176;42.622;25.386;2024-03-23T05:24:24;10.73;;;7.27;;
9438;SDS011;5176;42.622;25.386;2024-03-23T05:26:51;7.83;;;5.27;;
9438;SDS011;5176;42.622;25.386;2024-03-23T05:29:18;8.03;;;5.73;;
9438;SDS011;5176;42.622;25.386;2024-03-23T05:31:45;6.87;;;5.13;;
9438;SDS011;5176;42.622;25.386;2024-03-23T05:34:18;8.80;;;5.57;;
9438;SDS011;5176;42.622;25.386;2024-03-23T05:36:44;8.77;;;5.40;;
9438;SDS011;5176;42.622;25.386;2024-03-23T05:39:12;6.60;;;4.97;;
9438;SDS011;5176;42.622;25.386;2024-03-23T05:41:40;6.83;;;5.20;;
9438;SDS011;5176;42.622;25.386;2024-03-23T05:44:08;10.13;;;6.37;;
9438;SDS011;5176;42.622;25.386;2024-03-23T05:46:34;7.97;;;6.47;;
9438;SDS011;5176;42.622;25.386;2024-03-23T05:49:02;10.90;;;5.43;;
9438;SDS011;5176;42.622;25.386;2024-03-23T05:51:29;7.03;;;5.30;;
9438;SDS011;5176;42.622;25.386;2024-03-23T05:53:57;6.17;;;5.30;;
9438;SDS011;5176;42.622;25.386;2024-03-23T05:56:23;10.07;;;5.73;;
9438;SDS011;5176;42.622;25.386;2024-03-23T05:58:51;11.83;;;6.27;;
9438;SDS011;5176;42.622;25.386;2024-03-23T06:01:17;6.63;;;5.10;;
9438;SDS011;5176;42.622;25.386;2024-03-23T06:03:45;7.83;;;4.80;;
9438;SDS011;5176;42.622;25.386;2024-03-23T06:06:11;6.97;;;5.40;;
9438;SDS011;5176;42.622;25.386;2024-03-23T06:08:40;8.73;;;5.90;;
9438;SDS011;5176;42.622;25.386;2024-03-23T06:11:06;9.10;;;5.93;;
9438;SDS011;5176;42.622;25.386;2024-03-23T06:13:34;7.63;;;5.70;;
9438;SDS011;5176;42.622;25.386;2024-03-23T06:16:00;10.60;;;5.23;;
9438;SDS011;5176;42.622;25.386;2024-03-23T06:18:28;8.27;;;5.90;;
9438;SDS011;5176;42.622;25.386;2024-03-23T06:20:54;9.13;;;6.33;;
9438;SDS011;5176;42.622;25.386;2024-03-23T06:23:21;6.87;;;5.00;;
9438;SDS011;5176;42.622;25.386;2024-03-23T06:25:49;5.73;;;4.43;;
9438;SDS011;5176;42.622;25.386;2024-03-23T06:28:17;8.00;;;5.23;;
9438;SDS011;5176;42.622;25.386;2024-03-23T06:30:43;8.57;;;5.70;;
9438;SDS011;5176;42.622;25.386;2024-03-23T06:33:11;7.60;;;5.80;;
9438;SDS011;5176;42.622;25.386;2024-03-23T06:35:37;5.83;;;5.17;;
9438;SDS011;5176;42.622;25.386;2024-03-23T06:38:04;6.57;;;5.80;;
9438;SDS011;5176;42.622;25.386;2024-03-23T06:40:31;7.73;;;6.00;;
9438;SDS011;5176;42.622;25.386;2024-03-23T06:42:59;6.77;;;5.07;;
9438;SDS011;5176;42.622;25.386;2024-03-23T06:45:26;8.20;;;5.20;;
9438;SDS011;5176;42.622;25.386;2024-03-23T06:47:53;7.13;;;5.40;;
9438;SDS011;5176;42.622;25.386;2024-03-23T06:50:21;9.37;;;4.90;;
9438;SDS011;5176;42.622;25.386;2024-03-23T06:52:49;5.90;;;4.73;;
9438;SDS011;5176;42.622;25.386;2024-03-23T06:55:15;4.80;;;4.30;;
9438;SDS011;5176;42.622;25.386;2024-03-23T06:57:43;7.47;;;4.90;;
9438;SDS011;5176;42.622;25.386;2024-03-23T07:00:11;6.33;;;4.80;;
9438;SDS011;5176;42.622;25.386;2024-03-23T07:02:41;4.80;;;4.30;;
9438;SDS011;5176;42.622;25.386;2024-03-23T07:05:07;5.47;;;4.17;;
9438;SDS011;5176;42.622;25.386;2024-03-23T07:07:35;6.30;;;3.93;;
9438;SDS011;5176;42.622;25.386;2024-03-23T07:10:01;4.33;;;3.93;;
9438;SDS011;5176;42.622;25.386;2024-03-23T07:12:28;4.87;;;3.73;;
9438;SDS011;5176;42.622;25.386;2024-03-23T07:14:55;6.20;;;4.50;;
9438;SDS011;5176;42.622;25.386;2024-03-23T07:17:23;6.03;;;4.80;;
9438;SDS011;5176;42.622;25.386;2024-03-23T07:19:50;5.93;;;4.17;;
9438;SDS011;5176;42.622;25.386;2024-03-23T07:22:17;4.70;;;3.93;;
9438;SDS011;5176;42.622;25.386;2024-03-23T07:24:43;5.33;;;4.00;;
9438;SDS011;5176;42.622;25.386;2024-03-23T07:27:11;4.17;;;3.70;;
9438;SDS011;5176;42.622;25.386;2024-03-23T07:29:37;4.37;;;3.90;;
9438;SDS011;5176;42.622;25.386;2024-03-23T07:32:05;5.47;;;4.50;;
9438;SDS011;5176;42.622;25.386;2024-03-23T07:34:33;6.83;;;4.43;;
9438;SDS011;5176;42.622;25.386;2024-03-23T07:37:00;4.13;;;3.73;;
9438;SDS011;5176;42.622;25.386;2024-03-23T07:39:26;3.97;;;3.27;;
9438;SDS011;5176;42.622;25.386;2024-03-23T07:41:54;4.20;;;3.80;;
9438;SDS011;5176;42.622;25.386;2024-03-23T07:44:20;5.10;;;3.83;;
9438;SDS011;5176;42.622;25.386;2024-03-23T07:46:47;4.90;;;4.20;;
9438;SDS011;5176;42.622;25.386;2024-03-23T07:49:14;5.07;;;3.70;;
9438;SDS011;5176;42.622;25.386;2024-03-23T07:51:42;4.63;;;4.00;;
9438;SDS011;5176;42.622;25.386;2024-03-23T07:54:10;5.67;;;4.57;;
9438;SDS011;5176;42.622;25.386;2024-03-23T07:56:37;4.27;;;3.57;;
9438;SDS011;5176;42.622;25.386;2024-03-23T07:59:03;5.87;;;4.03;;
9438;SDS011;5176;42.622;25.386;2024-03-23T08:01:31;4.50;;;3.80;;
9438;SDS011;5176;42.622;25.386;2024-03-23T08:03:59;6.00;;;3.83;;
9438;SDS011;5176;42.622;25.386;2024-03-23T08:06:26;4.03;;;3.40;;
9438;SDS011;5176;42.622;25.386;2024-03-23T08:08:54;4.47;;;3.37;;
9438;SDS011;5176;42.622;25.386;2024-03-23T08:11:26;3.40;;;3.10;;
9438;SDS011;5176;42.622;25.386;2024-03-23T08:13:52;3.20;;;2.93;;
9438;SDS011;5176;42.622;25.386;2024-03-23T08:16:19;3.85;;;3.45;;
9438;SDS011;5176;42.622;25.386;2024-03-23T08:18:46;3.58;;;3.20;;
9438;SDS011;5176;42.622;25.386;2024-03-23T08:21:14;3.90;;;3.50;;
9438;SDS011;5176;42.622;25.386;2024-03-23T08:23:40;3.60;;;3.25;;
9438;SDS011;5176;42.622;25.386;2024-03-23T08:26:09;6.65;;;4.80;;
9438;SDS011;5176;42.622;25.386;2024-03-23T08:28:36;3.70;;;3.40;;
9438;SDS011;5176;42.622;25.386;2024-03-23T08:31:05;4.72;;;3.08;;
9438;SDS011;5176;42.622;25.386;2024-03-23T08:33:33;3.67;;;3.35;;
9438;SDS011;5176;42.622;25.386;2024-03-23T08:36:01;3.60;;;3.22;;
9438;SDS011;5176;42.622;25.386;2024-03-23T08:38:28;4.85;;;3.28;;
9438;SDS011;5176;42.622;25.386;2024-03-23T08:40:56;3.72;;;3.22;;
9438;SDS011;5176;42.622;25.386;2024-03-23T08:43:24;4.63;;;3.90;;
9438;SDS011;5176;42.622;25.386;2024-03-23T08:45:52;4.15;;;3.45;;
9438;SDS011;5176;42.622;25.386;2024-03-23T08:48:19;3.22;;;2.88;;
9438;SDS011;5176;42.622;25.386;2024-03-23T08:50:47;4.72;;;3.42;;
9438;SDS011;5176;42.622;25.386;2024-03-23T08:53:23;3.75;;;3.40;;
9438;SDS011;5176;42.622;25.386;2024-03-23T08:55:52;4.30;;;3.30;;
9438;SDS011;5176;42.622;25.386;2024-03-23T08:58:19;3.25;;;2.85;;
9438;SDS011;5176;42.622;25.386;2024-03-23T09:00:48;3.55;;;3.22;;
9438;SDS011;5176;42.622;25.386;2024-03-23T09:03:15;5.57;;;3.70;;
9438;SDS011;5176;42.622;25.386;2024-03-23T09:05:42;3.88;;;3.53;;
9438;SDS011;5176;42.622;25.386;2024-03-23T09:08:09;3.08;;;2.80;;
9438;SDS011;5176;42.622;25.386;2024-03-23T09:10:38;3.30;;;3.00;;
9438;SDS011;5176;42.622;25.386;2024-03-23T09:13:04;3.40;;;3.10;;
9438;SDS011;5176;42.622;25.386;2024-03-23T09:15:32;4.43;;;3.35;;
9438;SDS011;5176;42.622;25.386;2024-03-23T09:18:01;2.78;;;2.55;;
9438;SDS011;5176;42.622;25.386;2024-03-23T09:20:28;2.83;;;2.50;;
9438;SDS011;5176;42.622;25.386;2024-03-23T09:22:54;2.80;;;2.60;;
9438;SDS011;5176;42.622;25.386;2024-03-23T09:25:25;5.30;;;2.88;;
9438;SDS011;5176;42.622;25.386;2024-03-23T09:27:51;3.30;;;2.60;;
9438;SDS011;5176;42.622;25.386;2024-03-23T09:30:19;3.70;;;3.38;;
9438;SDS011;5176;42.622;25.386;2024-03-23T09:32:45;2.38;;;2.28;;
9438;SDS011;5176;42.622;25.386;2024-03-23T09:35:14;5.03;;;3.90;;
9438;SDS011;5176;42.622;25.386;2024-03-23T09:37:40;4.15;;;2.20;;
9438;SDS011;5176;42.622;25.386;2024-03-23T09:40:09;2.50;;;2.30;;
9438;SDS011;5176;42.622;25.386;2024-03-23T09:42:37;3.65;;;2.50;;
9438;SDS011;5176;42.622;25.386;2024-03-23T09:45:05;2.15;;;2.05;;
9438;SDS011;5176;42.622;25.386;2024-03-23T09:47:38;2.40;;;2.20;;
9438;SDS011;5176;42.622;25.386;2024-03-23T09:50:05;4.10;;;2.00;;
9438;SDS011;5176;42.622;25.386;2024-03-23T09:52:36;4.03;;;2.45;;
9438;SDS011;5176;42.622;25.386;2024-03-23T09:55:04;2.25;;;2.00;;
9438;SDS011;5176;42.622;25.386;2024-03-23T09:57:30;1.90;;;1.80;;
9438;SDS011;5176;42.622;25.386;2024-03-23T09:59:58;2.90;;;2.70;;
9438;SDS011;5176;42.622;25.386;2024-03-23T10:02:24;3.55;;;2.33;;
9438;SDS011;5176;42.622;25.386;2024-03-23T10:04:52;2.40;;;2.20;;
9438;SDS011;5176;42.622;25.386;2024-03-23T10:07:19;2.45;;;2.25;;
9438;SDS011;5176;42.622;25.386;2024-03-23T10:09:48;3.10;;;2.80;;
9438;SDS011;5176;42.622;25.386;2024-03-23T10:12:17;2.33;;;2.10;;
9438;SDS011;5176;42.622;25.386;2024-03-23T10:14:46;2.30;;;2.10;;
9438;SDS011;5176;42.622;25.386;2024-03-23T10:17:13;2.22;;;2.08;;
9438;SDS011;5176;42.622;25.386;2024-03-23T10:19:43;2.13;;;1.92;;
9438;SDS011;5176;42.622;25.386;2024-03-23T10:22:13;2.55;;;2.35;;
9438;SDS011;5176;42.622;25.386;2024-03-23T10:24:42;2.58;;;2.38;;
9438;SDS011;5176;42.622;25.386;2024-03-23T10:27:10;2.65;;;2.20;;
9438;SDS011;5176;42.622;25.386;2024-03-23T10:29:43;2.50;;;2.30;;
9438;SDS011;5176;42.622;25.386;2024-03-23T10:32:10;2.60;;;2.40;;
9438;SDS011;5176;42.622;25.386;2024-03-23T10:34:38;3.28;;;2.08;;
9438;SDS011;5176;42.622;25.386;2024-03-23T10:37:05;3.13;;;2.83;;
9438;SDS011;5176;42.622;25.386;2024-03-23T10:39:33;3.38;;;2.10;;
9438;SDS011;5176;42.622;25.386;2024-03-23T10:42:05;2.10;;;1.95;;
9438;SDS011;5176;42.622;25.386;2024-03-23T10:44:35;2.00;;;1.80;;
9438;SDS011;5176;42.622;25.386;2024-03-23T10:47:02;2.38;;;2.17;;
9438;SDS011;5176;42.622;25.386;2024-03-23T10:49:31;2.65;;;2.28;;
9438;SDS011;5176;42.622;25.386;2024-03-23T10:51:58;2.60;;;2.40;;
9438;SDS011;5176;42.622;25.386;2024-03-23T10:54:26;2.15;;;1.95;;
9438;SDS011;5176;42.622;25.386;2024-03-23T10:56:53;2.40;;;2.20;;
9438;SDS011;5176;42.622;25.386;2024-03-23T10:59:26;2.25;;;2.05;;
9438;SDS011;5176;42.622;25.386;2024-03-23T11:01:56;2.03;;;1.90;;
9438;SDS011;5176;42.622;25.386;2024-03-23T11:04:31;2.47;;;2.28;;
9438;SDS011;5176;42.622;25.386;2024-03-23T11:06:58;2.65;;;2.08;;
9438;SDS011;5176;42.622;25.386;2024-03-23T11:09:41;2.50;;;2.30;;
9438;SDS011;5176;42.622;25.386;2024-03-23T11:12:26;4.78;;;3.83;;
9438;SDS011;5176;42.622;25.386;2024-03-23T11:14:57;2.47;;;2.00;;
9438;SDS011;5176;42.622;25.386;2024-03-23T11:17:28;2.45;;;1.98;;
9438;SDS011;5176;42.622;25.386;2024-03-23T11:19:56;3.22;;;2.40;;
9438;SDS011;5176;42.622;25.386;2024-03-23T11:22:39;1.92;;;1.83;;
9438;SDS011;5176;42.622;25.386;2024-03-23T11:25:15;2.40;;;2.20;;
9438;SDS011;5176;42.622;25.386;2024-03-23T11:27:44;5.00;;;4.25;;
9438;SDS011;5176;42.622;25.386;2024-03-23T11:30:12;2.75;;;2.55;;
9438;SDS011;5176;42.622;25.386;2024-03-23T11:32:41;3.03;;;2.78;;
9438;SDS011;5176;42.622;25.386;2024-03-23T11:35:09;2.67;;;2.47;;
9438;SDS011;5176;42.622;25.386;2024-03-23T11:37:36;3.22;;;2.97;;
9438;SDS011;5176;42.622;25.386;2024-03-23T11:40:19;3.38;;;2.65;;
9438;SDS011;5176;42.622;25.386;2024-03-23T11:42:46;3.75;;;3.45;;
9438;SDS011;5176;42.622;25.386;2024-03-23T11:45:14;3.50;;;2.30;;
9438;SDS011;5176;42.622;25.386;2024-03-23T11:47:43;6.93;;;6.22;;
9438;SDS011;5176;42.622;25.386;2024-03-23T11:50:10;2.50;;;2.30;;
9438;SDS011;5176;42.622;25.386;2024-03-23T11:52:45;3.80;;;2.30;;
9438;SDS011;5176;42.622;25.386;2024-03-23T11:55:12;6.82;;;6.15;;
9438;SDS011;5176;42.622;25.386;2024-03-23T11:57:39;3.75;;;3.45;;
9438;SDS011;5176;42.622;25.386;2024-03-23T12:00:20;5.85;;;4.78;;
9438;SDS011;5176;42.622;25.386;2024-03-23T12:02:49;3.00;;;2.80;;
9438;SDS011;5176;42.622;25.386;2024-03-23T12:05:16;4.60;;;2.65;;
9438;SDS011;5176;42.622;25.386;2024-03-23T12:07:43;3.58;;;3.28;;
9438;SDS011;5176;42.622;25.386;2024-03-23T12:10:10;2.80;;;2.60;;
9438;SDS011;5176;42.622;25.386;2024-03-23T12:12:37;3.42;;;2.85;;
9438;SDS011;5176;42.622;25.386;2024-03-23T12:15:04;2.80;;;2.13;;
9438;SDS011;5176;42.622;25.386;2024-03-23T12:17:31;3.95;;;2.92;;
9438;SDS011;5176;42.622;25.386;2024-03-23T12:20:01;4.63;;;3.22;;
9438;SDS011;5176;42.622;25.386;2024-03-23T12:22:28;2.70;;;2.50;;
9438;SDS011;5176;42.622;25.386;2024-03-23T12:24:56;2.63;;;2.42;;
9438;SDS011;5176;42.622;25.386;2024-03-23T12:27:22;7.60;;;5.70;;
9438;SDS011;5176;42.622;25.386;2024-03-23T12:29:50;2.72;;;2.53;;
9438;SDS011;5176;42.622;25.386;2024-03-23T12:32:16;4.90;;;4.40;;
9438;SDS011;5176;42.622;25.386;2024-03-23T12:34:44;3.58;;;3.03;;
9438;SDS011;5176;42.622;25.386;2024-03-23T12:37:12;13.27;;;9.90;;
9438;SDS011;5176;42.622;25.386;2024-03-23T12:39:39;14.48;;;9.60;;
9438;SDS011;5176;42.622;25.386;2024-03-23T12:42:06;2.83;;;2.40;;
9438;SDS011;5176;42.622;25.386;2024-03-23T12:44:34;4.63;;;2.83;;
9438;SDS011;5176;42.622;25.386;2024-03-23T12:47:00;5.30;;;4.80;;
9438;SDS011;5176;42.622;25.386;2024-03-23T12:49:27;4.30;;;3.90;;
9438;SDS011;5176;42.622;25.386;2024-03-23T12:51:54;5.55;;;3.60;;
9438;SDS011;5176;42.622;25.386;2024-03-23T12:54:24;3.35;;;3.05;;
9438;SDS011;5176;42.622;25.386;2024-03-23T12:56:50;2.78;;;2.58;;
9438;SDS011;5176;42.622;25.386;2024-03-23T12:59:18;3.80;;;2.33;;
9438;SDS011;5176;42.622;25.386;2024-03-23T13:01:44;2.75;;;2.55;;
9438;SDS011;5176;42.622;25.386;2024-03-23T13:04:11;5.15;;;3.78;;
9438;SDS011;5176;42.622;25.386;2024-03-23T13:06:38;3.35;;;3.05;;
9438;SDS011;5176;42.622;25.386;2024-03-23T13:09:05;3.15;;;2.90;;
9438;SDS011;5176;42.622;25.386;2024-03-23T13:11:33;2.63;;;2.38;;
9438;SDS011;5176;42.622;25.386;2024-03-23T13:14:00;3.10;;;2.88;;
9438;SDS011;5176;42.622;25.386;2024-03-23T13:16:27;3.45;;;2.80;;
9438;SDS011;5176;42.622;25.386;2024-03-23T13:18:54;3.78;;;2.70;;
9438;SDS011;5176;42.622;25.386;2024-03-23T13:21:20;4.82;;;3.00;;
9438;SDS011;5176;42.622;25.386;2024-03-23T13:23:48;4.15;;;2.97;;
9438;SDS011;5176;42.622;25.386;2024-03-23T13:26:16;2.40;;;2.28;;
9438;SDS011;5176;42.622;25.386;2024-03-23T13:28:45;2.47;;;2.28;;
9438;SDS011;5176;42.622;25.386;2024-03-23T13:31:11;2.97;;;2.67;;
9438;SDS011;5176;42.622;25.386;2024-03-23T13:33:38;4.40;;;2.58;;
9438;SDS011;5176;42.622;25.386;2024-03-23T13:36:07;3.30;;;2.80;;
9438;SDS011;5176;42.622;25.386;2024-03-23T13:38:35;3.72;;;3.25;;
9438;SDS011;5176;42.622;25.386;2024-03-23T13:41:01;3.63;;;3.33;;
9438;SDS011;5176;42.622;25.386;2024-03-23T13:43:30;3.83;;;3.47;;
9438;SDS011;5176;42.622;25.386;2024-03-23T13:45:57;5.72;;;5.20;;
9438;SDS011;5176;42.622;25.386;2024-03-23T13:48:26;6.03;;;5.43;;
9438;SDS011;5176;42.622;25.386;2024-03-23T13:50:57;4.50;;;4.10;;
9438;SDS011;5176;42.622;25.386;2024-03-23T13:53:25;4.35;;;3.83;;
9438;SDS011;5176;42.622;25.386;2024-03-23T13:55:51;6.40;;;4.25;;
9438;SDS011;5176;42.622;25.386;2024-03-23T13:58:19;4.30;;;3.90;;
9438;SDS011;5176;42.622;25.386;2024-03-23T14:00:45;5.47;;;4.95;;
9438;SDS011;5176;42.622;25.386;2024-03-23T14:03:14;7.15;;;4.93;;
9438;SDS011;5176;42.622;25.386;2024-03-23T14:05:41;13.40;;;9.45;;
9438;SDS011;5176;42.622;25.386;2024-03-23T14:08:09;5.15;;;4.70;;
9438;SDS011;5176;42.622;25.386;2024-03-23T14:10:36;10.43;;;7.22;;
9438;SDS011;5176;42.622;25.386;2024-03-23T14:13:07;8.35;;;6.30;;
9438;SDS011;5176;42.622;25.386;2024-03-23T14:15:33;5.05;;;4.55;;
9438;SDS011;5176;42.622;25.386;2024-03-23T14:18:02;4.32;;;3.78;;
9438;SDS011;5176;42.622;25.386;2024-03-23T14:20:30;4.30;;;3.80;;
9438;SDS011;5176;42.622;25.386;2024-03-23T14:22:57;4.30;;;3.90;;
9438;SDS011;5176;42.622;25.386;2024-03-23T14:25:24;2.80;;;2.45;;
9438;SDS011;5176;42.622;25.386;2024-03-23T14:27:54;4.20;;;3.88;;
9438;SDS011;5176;42.622;25.386;2024-03-23T14:30:20;3.72;;;2.85;;
9438;SDS011;5176;42.622;25.386;2024-03-23T14:32:48;3.55;;;3.25;;
9438;SDS011;5176;42.622;25.386;2024-03-23T14:35:14;3.58;;;3.28;;
9438;SDS011;5176;42.622;25.386;2024-03-23T14:37:43;5.00;;;4.55;;
9438;SDS011;5176;42.622;25.386;2024-03-23T14:40:10;5.00;;;4.50;;
9438;SDS011;5176;42.622;25.386;2024-03-23T14:42:38;3.88;;;3.50;;
9438;SDS011;5176;42.622;25.386;2024-03-23T14:45:05;4.88;;;4.22;;
9438;SDS011;5176;42.622;25.386;2024-03-23T14:47:33;5.70;;;4.70;;
9438;SDS011;5176;42.622;25.386;2024-03-23T14:49:59;4.07;;;3.65;;
9438;SDS011;5176;42.622;25.386;2024-03-23T14:52:27;4.03;;;3.42;;
9438;SDS011;5176;42.622;25.386;2024-03-23T14:54:55;3.10;;;2.80;;
9438;SDS011;5176;42.622;25.386;2024-03-23T14:57:23;4.72;;;4.22;;
9438;SDS011;5176;42.622;25.386;2024-03-23T14:59:49;6.07;;;4.57;;
9438;SDS011;5176;42.622;25.386;2024-03-23T15:02:17;4.00;;;3.60;;
9438;SDS011;5176;42.622;25.386;2024-03-23T15:04:43;4.25;;;3.63;;
9438;SDS011;5176;42.622;25.386;2024-03-23T15:07:11;3.47;;;3.17;;
9438;SDS011;5176;42.622;25.386;2024-03-23T15:09:37;5.60;;;4.72;;
9438;SDS011;5176;42.622;25.386;2024-03-23T15:12:06;6.43;;;5.57;;
9438;SDS011;5176;42.622;25.386;2024-03-23T15:14:33;5.60;;;3.35;;
9438;SDS011;5176;42.622;25.386;2024-03-23T15:17:01;5.55;;;4.85;;
9438;SDS011;5176;42.622;25.386;2024-03-23T15:19:30;8.85;;;6.57;;
9438;SDS011;5176;42.622;25.386;2024-03-23T15:21:57;14.15;;;10.93;;
9438;SDS011;5176;42.622;25.386;2024-03-23T15:24:24;7.28;;;5.63;;
9438;SDS011;5176;42.622;25.386;2024-03-23T15:26:52;4.10;;;3.70;;
9438;SDS011;5176;42.622;25.386;2024-03-23T15:29:19;5.38;;;3.03;;
9438;SDS011;5176;42.622;25.386;2024-03-23T15:31:48;5.78;;;3.72;;
9438;SDS011;5176;42.622;25.386;2024-03-23T15:34:18;3.53;;;3.22;;
9438;SDS011;5176;42.622;25.386;2024-03-23T15:36:47;4.35;;;3.65;;
9438;SDS011;5176;42.622;25.386;2024-03-23T15:39:14;3.67;;;3.38;;
9438;SDS011;5176;42.622;25.386;2024-03-23T15:41:43;3.67;;;3.22;;
9438;SDS011;5176;42.622;25.386;2024-03-23T15:44:10;3.95;;;3.45;;
9438;SDS011;5176;42.622;25.386;2024-03-23T15:46:39;3.90;;;3.50;;
9438;SDS011;5176;42.622;25.386;2024-03-23T15:49:05;4.97;;;4.47;;
9438;SDS011;5176;42.622;25.386;2024-03-23T15:51:33;6.25;;;5.55;;
9438;SDS011;5176;42.622;25.386;2024-03-23T15:54:01;4.00;;;3.60;;